sensor_id;sensor_type;location;lat;lon;timestamp;P1;durP1;ratioP1;P2;durP2;ratioP2
64842;SDS011;51310;52.198;5.422;2023-04-03T00:00:59;2.67;;;1.58;;
64842;SDS011;51310;52.198;5.422;2023-04-03T00:03:25;4.83;;;1.73;;
64842;SDS011;51310;52.198;5.422;2023-04-03T00:05:51;3.30;;;1.60;;
64842;SDS011;51310;52.198;5.422;2023-04-03T00:08:17;3.30;;;1.42;;
64842;SDS011;51310;52.198;5.422;2023-04-03T00:10:43;3.00;;;1.40;;
64842;SDS011;51310;52.198;5.422;2023-04-03T00:13:09;2.93;;;1.40;;
64842;SDS011;51310;52.198;5.422;2023-04-03T00:15:36;3.88;;;1.60;;
64842;SDS011;51310;52.198;5.422;2023-04-03T00:18:03;3.33;;;1.73;;
64842;SDS011;51310;52.198;5.422;2023-04-03T00:20:30;2.05;;;1.30;;
64842;SDS011;51310;52.198;5.422;2023-04-03T00:22:57;4.03;;;1.77;;
64842;SDS011;51310;52.198;5.422;2023-04-03T00:25:23;3.80;;;1.40;;
64842;SDS011;51310;52.198;5.422;2023-04-03T00:27:48;5.63;;;1.55;;
64842;SDS011;51310;52.198;5.422;2023-04-03T00:30:15;3.33;;;1.50;;
64842;SDS011;51310;52.198;5.422;2023-04-03T00:32:44;4.78;;;2.00;;
64842;SDS011;51310;52.198;5.422;2023-04-03T00:35:10;6.25;;;1.58;;
64842;SDS011;51310;52.198;5.422;2023-04-03T00:37:36;4.03;;;1.43;;
64842;SDS011;51310;52.198;5.422;2023-04-03T00:40:02;3.65;;;1.25;;
64842;SDS011;51310;52.198;5.422;2023-04-03T00:42:30;5.95;;;1.50;;
64842;SDS011;51310;52.198;5.422;2023-04-03T00:47:21;6.55;;;1.80;;
64842;SDS011;51310;52.198;5.422;2023-04-03T00:49:49;3.50;;;1.80;;
64842;SDS011;51310;52.198;5.422;2023-04-03T00:52:19;5.03;;;1.58;;
64842;SDS011;51310;52.198;5.422;2023-04-03T00:54:49;3.50;;;1.52;;
64842;SDS011;51310;52.198;5.422;2023-04-03T00:57:19;4.18;;;1.30;;
64842;SDS011;51310;52.198;5.422;2023-04-03T00:59:52;7.20;;;1.65;;
64842;SDS011;51310;52.198;5.422;2023-04-03T01:02:24;3.75;;;1.50;;
64842;SDS011;51310;52.198;5.422;2023-04-03T01:04:51;4.80;;;1.45;;
64842;SDS011;51310;52.198;5.422;2023-04-03T01:07:21;5.50;;;1.60;;
64842;SDS011;51310;52.198;5.422;2023-04-03T01:09:53;5.18;;;1.73;;
64842;SDS011;51310;52.198;5.422;2023-04-03T01:12:25;4.03;;;1.60;;
64842;SDS011;51310;52.198;5.422;2023-04-03T01:14:56;5.40;;;1.52;;
64842;SDS011;51310;52.198;5.422;2023-04-03T01:25:47;5.20;;;1.92;;
64842;SDS011;51310;52.198;5.422;2023-04-03T01:28:23;4.17;;;1.50;;
64842;SDS011;51310;52.198;5.422;2023-04-03T01:31:06;4.43;;;1.50;;
64842;SDS011;51310;52.198;5.422;2023-04-03T01:33:54;4.30;;;1.50;;
64842;SDS011;51310;52.198;5.422;2023-04-03T01:36:25;6.15;;;1.70;;
64842;SDS011;51310;52.198;5.422;2023-04-03T01:38:55;3.75;;;1.50;;
64842;SDS011;51310;52.198;5.422;2023-04-03T01:41:24;3.67;;;1.65;;
64842;SDS011;51310;52.198;5.422;2023-04-03T01:43:50;5.80;;;1.83;;
64842;SDS011;51310;52.198;5.422;2023-04-03T01:46:17;4.63;;;1.50;;
64842;SDS011;51310;52.198;5.422;2023-04-03T01:48:44;3.15;;;1.58;;
64842;SDS011;51310;52.198;5.422;2023-04-03T01:51:10;6.30;;;1.60;;
64842;SDS011;51310;52.198;5.422;2023-04-03T01:53:36;3.40;;;1.60;;
64842;SDS011;51310;52.198;5.422;2023-04-03T01:56:02;6.88;;;1.83;;
64842;SDS011;51310;52.198;5.422;2023-04-03T01:58:29;5.35;;;1.73;;
64842;SDS011;51310;52.198;5.422;2023-04-03T02:00:55;5.20;;;1.50;;
64842;SDS011;51310;52.198;5.422;2023-04-03T02:03:20;5.82;;;2.00;;
64842;SDS011;51310;52.198;5.422;2023-04-03T02:05:47;6.30;;;1.55;;
64842;SDS011;51310;52.198;5.422;2023-04-03T02:08:13;12.07;;;1.98;;
64842;SDS011;51310;52.198;5.422;2023-04-03T02:10:39;7.78;;;1.67;;
64842;SDS011;51310;52.198;5.422;2023-04-03T02:13:05;4.20;;;1.60;;
64842;SDS011;51310;52.198;5.422;2023-04-03T02:15:30;6.53;;;1.77;;
64842;SDS011;51310;52.198;5.422;2023-04-03T02:17:56;6.18;;;1.48;;
64842;SDS011;51310;52.198;5.422;2023-04-03T02:20:22;4.20;;;1.60;;
64842;SDS011;51310;52.198;5.422;2023-04-03T02:22:48;5.72;;;1.75;;
64842;SDS011;51310;52.198;5.422;2023-04-03T02:25:13;3.97;;;1.80;;
64842;SDS011;51310;52.198;5.422;2023-04-03T02:27:39;5.13;;;1.92;;
64842;SDS011;51310;52.198;5.422;2023-04-03T02:30:05;4.43;;;1.80;;
64842;SDS011;51310;52.198;5.422;2023-04-03T02:32:34;5.75;;;2.00;;
64842;SDS011;51310;52.198;5.422;2023-04-03T02:35:00;3.92;;;1.70;;
64842;SDS011;51310;52.198;5.422;2023-04-03T02:37:25;5.07;;;1.73;;
64842;SDS011;51310;52.198;5.422;2023-04-03T02:39:51;5.82;;;1.75;;
64842;SDS011;51310;52.198;5.422;2023-04-03T02:42:17;5.07;;;2.00;;
64842;SDS011;51310;52.198;5.422;2023-04-03T02:44:42;7.35;;;1.98;;
64842;SDS011;51310;52.198;5.422;2023-04-03T02:47:08;4.25;;;1.90;;
64842;SDS011;51310;52.198;5.422;2023-04-03T02:49:34;4.10;;;1.80;;
64842;SDS011;51310;52.198;5.422;2023-04-03T02:51:59;4.27;;;1.97;;
64842;SDS011;51310;52.198;5.422;2023-04-03T02:54:25;5.97;;;2.20;;
64842;SDS011;51310;52.198;5.422;2023-04-03T02:56:53;5.13;;;2.10;;
64842;SDS011;51310;52.198;5.422;2023-04-03T02:59:19;7.20;;;1.70;;
64842;SDS011;51310;52.198;5.422;2023-04-03T03:01:45;5.05;;;2.33;;
64842;SDS011;51310;52.198;5.422;2023-04-03T03:04:11;4.97;;;1.92;;
64842;SDS011;51310;52.198;5.422;2023-04-03T03:06:37;3.13;;;1.57;;
64842;SDS011;51310;52.198;5.422;2023-04-03T03:09:03;9.27;;;2.07;;
64842;SDS011;51310;52.198;5.422;2023-04-03T03:11:30;5.80;;;2.00;;
64842;SDS011;51310;52.198;5.422;2023-04-03T03:13:56;7.15;;;2.25;;
64842;SDS011;51310;52.198;5.422;2023-04-03T03:16:22;5.72;;;1.90;;
64842;SDS011;51310;52.198;5.422;2023-04-03T03:18:47;7.40;;;2.10;;
64842;SDS011;51310;52.198;5.422;2023-04-03T03:21:13;4.32;;;1.85;;
64842;SDS011;51310;52.198;5.422;2023-04-03T03:23:39;7.50;;;2.20;;
64842;SDS011;51310;52.198;5.422;2023-04-03T03:26:06;4.78;;;2.00;;
64842;SDS011;51310;52.198;5.422;2023-04-03T03:28:35;5.95;;;2.28;;
64842;SDS011;51310;52.198;5.422;2023-04-03T03:31:03;6.15;;;2.63;;
64842;SDS011;51310;52.198;5.422;2023-04-03T03:33:30;7.65;;;2.10;;
64842;SDS011;51310;52.198;5.422;2023-04-03T03:35:56;8.73;;;2.40;;
64842;SDS011;51310;52.198;5.422;2023-04-03T03:38:22;7.80;;;2.30;;
64842;SDS011;51310;52.198;5.422;2023-04-03T03:40:49;6.43;;;2.35;;
64842;SDS011;51310;52.198;5.422;2023-04-03T03:43:16;7.35;;;2.70;;
64842;SDS011;51310;52.198;5.422;2023-04-03T03:45:44;6.30;;;2.20;;
64842;SDS011;51310;52.198;5.422;2023-04-03T03:48:10;6.90;;;1.83;;
64842;SDS011;51310;52.198;5.422;2023-04-03T03:50:36;7.78;;;2.38;;
64842;SDS011;51310;52.198;5.422;2023-04-03T03:53:02;4.80;;;2.28;;
64842;SDS011;51310;52.198;5.422;2023-04-03T03:55:28;9.43;;;2.67;;
64842;SDS011;51310;52.198;5.422;2023-04-03T03:57:54;8.25;;;2.40;;
64842;SDS011;51310;52.198;5.422;2023-04-03T04:00:20;6.30;;;2.60;;
64842;SDS011;51310;52.198;5.422;2023-04-03T04:02:46;5.30;;;2.50;;
64842;SDS011;51310;52.198;5.422;2023-04-03T04:05:11;7.93;;;2.53;;
64842;SDS011;51310;52.198;5.422;2023-04-03T04:07:37;8.00;;;2.13;;
64842;SDS011;51310;52.198;5.422;2023-04-03T04:10:03;5.20;;;2.83;;
64842;SDS011;51310;52.198;5.422;2023-04-03T04:12:30;6.47;;;2.67;;
64842;SDS011;51310;52.198;5.422;2023-04-03T04:14:55;7.30;;;2.33;;
64842;SDS011;51310;52.198;5.422;2023-04-03T04:17:21;9.50;;;2.38;;
64842;SDS011;51310;52.198;5.422;2023-04-03T04:19:47;8.55;;;2.78;;
64842;SDS011;51310;52.198;5.422;2023-04-03T04:22:12;9.80;;;3.00;;
64842;SDS011;51310;52.198;5.422;2023-04-03T04:24:38;9.93;;;2.67;;
64842;SDS011;51310;52.198;5.422;2023-04-03T04:27:04;8.73;;;3.47;;
64842;SDS011;51310;52.198;5.422;2023-04-03T04:29:29;6.43;;;2.63;;
64842;SDS011;51310;52.198;5.422;2023-04-03T04:32:00;5.50;;;2.53;;
64842;SDS011;51310;52.198;5.422;2023-04-03T04:34:27;8.23;;;2.03;;
64842;SDS011;51310;52.198;5.422;2023-04-03T04:36:53;6.63;;;1.95;;
64842;SDS011;51310;52.198;5.422;2023-04-03T04:39:19;7.57;;;2.30;;
64842;SDS011;51310;52.198;5.422;2023-04-03T04:41:44;9.03;;;3.07;;
64842;SDS011;51310;52.198;5.422;2023-04-03T04:44:10;8.20;;;2.67;;
64842;SDS011;51310;52.198;5.422;2023-04-03T04:46:36;8.23;;;2.77;;
64842;SDS011;51310;52.198;5.422;2023-04-03T04:49:01;10.03;;;2.53;;
64842;SDS011;51310;52.198;5.422;2023-04-03T04:51:27;7.53;;;3.20;;
64842;SDS011;51310;52.198;5.422;2023-04-03T04:53:53;6.40;;;2.40;;
64842;SDS011;51310;52.198;5.422;2023-04-03T04:56:19;6.10;;;2.50;;
64842;SDS011;51310;52.198;5.422;2023-04-03T04:58:44;11.83;;;3.33;;
64842;SDS011;51310;52.198;5.422;2023-04-03T05:01:10;9.30;;;2.60;;
64842;SDS011;51310;52.198;5.422;2023-04-03T05:03:36;10.25;;;2.53;;
64842;SDS011;51310;52.198;5.422;2023-04-03T05:06:02;6.82;;;2.40;;
64842;SDS011;51310;52.198;5.422;2023-04-03T05:08:28;6.63;;;2.40;;
64842;SDS011;51310;52.198;5.422;2023-04-03T05:10:54;10.27;;;2.78;;
64842;SDS011;51310;52.198;5.422;2023-04-03T05:13:20;7.18;;;2.97;;
64842;SDS011;51310;52.198;5.422;2023-04-03T05:15:46;10.45;;;2.65;;
64842;SDS011;51310;52.198;5.422;2023-04-03T05:18:12;7.20;;;2.60;;
64842;SDS011;51310;52.198;5.422;2023-04-03T05:20:38;5.78;;;1.95;;
64842;SDS011;51310;52.198;5.422;2023-04-03T05:23:04;7.37;;;2.00;;
64842;SDS011;51310;52.198;5.422;2023-04-03T05:25:30;7.45;;;2.20;;
64842;SDS011;51310;52.198;5.422;2023-04-03T05:27:56;7.32;;;3.25;;
64842;SDS011;51310;52.198;5.422;2023-04-03T05:30:22;7.82;;;2.47;;
64842;SDS011;51310;52.198;5.422;2023-04-03T05:32:47;8.40;;;2.50;;
64842;SDS011;51310;52.198;5.422;2023-04-03T05:35:13;5.97;;;2.23;;
64842;SDS011;51310;52.198;5.422;2023-04-03T05:37:39;9.70;;;2.30;;
64842;SDS011;51310;52.198;5.422;2023-04-03T05:40:05;6.13;;;2.33;;
64842;SDS011;51310;52.198;5.422;2023-04-03T05:42:32;8.75;;;2.58;;
64842;SDS011;51310;52.198;5.422;2023-04-03T05:44:58;8.67;;;2.87;;
64842;SDS011;51310;52.198;5.422;2023-04-03T05:47:23;10.10;;;2.90;;
64842;SDS011;51310;52.198;5.422;2023-04-03T05:49:50;6.57;;;2.67;;
64842;SDS011;51310;52.198;5.422;2023-04-03T05:52:37;9.02;;;2.50;;
64842;SDS011;51310;52.198;5.422;2023-04-03T05:55:05;4.93;;;2.05;;
64842;SDS011;51310;52.198;5.422;2023-04-03T05:57:32;8.38;;;2.35;;
64842;SDS011;51310;52.198;5.422;2023-04-03T05:59:57;10.63;;;3.03;;
64842;SDS011;51310;52.198;5.422;2023-04-03T06:02:23;9.90;;;2.67;;
64842;SDS011;51310;52.198;5.422;2023-04-03T06:04:51;6.05;;;2.20;;
64842;SDS011;51310;52.198;5.422;2023-04-03T06:07:18;6.37;;;2.70;;
64842;SDS011;51310;52.198;5.422;2023-04-03T06:09:48;7.70;;;2.15;;
64842;SDS011;51310;52.198;5.422;2023-04-03T06:12:19;6.70;;;2.05;;
64842;SDS011;51310;52.198;5.422;2023-04-03T06:14:45;8.30;;;2.38;;
64842;SDS011;51310;52.198;5.422;2023-04-03T06:17:11;7.35;;;2.80;;
64842;SDS011;51310;52.198;5.422;2023-04-03T06:19:37;5.55;;;2.30;;
64842;SDS011;51310;52.198;5.422;2023-04-03T06:22:03;6.75;;;2.42;;
64842;SDS011;51310;52.198;5.422;2023-04-03T06:24:29;6.67;;;2.20;;
64842;SDS011;51310;52.198;5.422;2023-04-03T06:26:56;11.30;;;2.40;;
64842;SDS011;51310;52.198;5.422;2023-04-03T06:29:22;6.70;;;2.50;;
64842;SDS011;51310;52.198;5.422;2023-04-03T06:31:49;7.07;;;2.33;;
64842;SDS011;51310;52.198;5.422;2023-04-03T06:34:16;8.45;;;2.45;;
64842;SDS011;51310;52.198;5.422;2023-04-03T06:36:43;8.93;;;2.38;;
64842;SDS011;51310;52.198;5.422;2023-04-03T06:39:13;7.50;;;2.60;;
64842;SDS011;51310;52.198;5.422;2023-04-03T06:41:42;7.68;;;2.25;;
64842;SDS011;51310;52.198;5.422;2023-04-03T06:44:09;6.68;;;2.65;;
64842;SDS011;51310;52.198;5.422;2023-04-03T06:46:37;6.85;;;2.42;;
64842;SDS011;51310;52.198;5.422;2023-04-03T06:49:03;9.50;;;2.30;;
64842;SDS011;51310;52.198;5.422;2023-04-03T06:51:32;6.20;;;2.30;;
64842;SDS011;51310;52.198;5.422;2023-04-03T06:53:59;6.72;;;2.67;;
64842;SDS011;51310;52.198;5.422;2023-04-03T06:56:25;6.97;;;2.42;;
64842;SDS011;51310;52.198;5.422;2023-04-03T06:58:53;6.80;;;2.20;;
64842;SDS011;51310;52.198;5.422;2023-04-03T07:01:22;7.53;;;2.15;;
64842;SDS011;51310;52.198;5.422;2023-04-03T07:03:51;6.50;;;2.15;;
64842;SDS011;51310;52.198;5.422;2023-04-03T07:06:17;9.75;;;2.42;;
64842;SDS011;51310;52.198;5.422;2023-04-03T07:08:44;4.05;;;2.08;;
64842;SDS011;51310;52.198;5.422;2023-04-03T07:11:12;5.00;;;1.73;;
64842;SDS011;51310;52.198;5.422;2023-04-03T07:13:38;7.22;;;2.08;;
64842;SDS011;51310;52.198;5.422;2023-04-03T07:16:04;6.90;;;2.20;;
64842;SDS011;51310;52.198;5.422;2023-04-03T07:18:31;6.10;;;2.28;;
64842;SDS011;51310;52.198;5.422;2023-04-03T07:20:58;4.55;;;1.95;;
64842;SDS011;51310;52.198;5.422;2023-04-03T07:23:25;8.53;;;2.63;;
64842;SDS011;51310;52.198;5.422;2023-04-03T07:25:51;5.73;;;1.93;;
64842;SDS011;51310;52.198;5.422;2023-04-03T07:28:18;7.40;;;2.78;;
64842;SDS011;51310;52.198;5.422;2023-04-03T07:30:45;10.10;;;2.35;;
64842;SDS011;51310;52.198;5.422;2023-04-03T07:33:18;5.65;;;1.88;;
64842;SDS011;51310;52.198;5.422;2023-04-03T07:35:46;6.10;;;2.00;;
64842;SDS011;51310;52.198;5.422;2023-04-03T07:38:13;5.43;;;2.30;;
64842;SDS011;51310;52.198;5.422;2023-04-03T07:40:39;4.10;;;1.67;;
64842;SDS011;51310;52.198;5.422;2023-04-03T07:43:11;4.47;;;1.63;;
64842;SDS011;51310;52.198;5.422;2023-04-03T07:45:36;4.93;;;1.83;;
64842;SDS011;51310;52.198;5.422;2023-04-03T07:48:02;6.47;;;1.80;;
64842;SDS011;51310;52.198;5.422;2023-04-03T07:50:28;6.93;;;2.00;;
64842;SDS011;51310;52.198;5.422;2023-04-03T07:52:56;7.83;;;2.43;;
64842;SDS011;51310;52.198;5.422;2023-04-03T07:55:22;4.68;;;1.95;;
64842;SDS011;51310;52.198;5.422;2023-04-03T07:57:49;4.93;;;1.60;;
64842;SDS011;51310;52.198;5.422;2023-04-03T08:00:15;4.07;;;1.70;;
64842;SDS011;51310;52.198;5.422;2023-04-03T08:02:42;6.05;;;2.10;;
64842;SDS011;51310;52.198;5.422;2023-04-03T08:05:09;5.20;;;1.63;;
64842;SDS011;51310;52.198;5.422;2023-04-03T08:07:36;2.67;;;1.48;;
64842;SDS011;51310;52.198;5.422;2023-04-03T08:10:03;4.75;;;1.83;;
64842;SDS011;51310;52.198;5.422;2023-04-03T08:12:30;6.47;;;1.73;;
64842;SDS011;51310;52.198;5.422;2023-04-03T08:14:56;3.03;;;1.30;;
64842;SDS011;51310;52.198;5.422;2023-04-03T08:17:25;3.53;;;1.52;;
64842;SDS011;51310;52.198;5.422;2023-04-03T08:19:51;5.75;;;1.40;;
64842;SDS011;51310;52.198;5.422;2023-04-03T08:22:17;4.87;;;1.40;;
64842;SDS011;51310;52.198;5.422;2023-04-03T08:24:42;3.50;;;1.38;;
64842;SDS011;51310;52.198;5.422;2023-04-03T08:27:08;5.85;;;1.63;;
64842;SDS011;51310;52.198;5.422;2023-04-03T08:29:35;3.83;;;1.50;;
64842;SDS011;51310;52.198;5.422;2023-04-03T08:32:02;4.78;;;1.40;;
64842;SDS011;51310;52.198;5.422;2023-04-03T08:34:29;3.85;;;1.10;;
64842;SDS011;51310;52.198;5.422;2023-04-03T08:36:59;2.97;;;1.25;;
64842;SDS011;51310;52.198;5.422;2023-04-03T08:39:26;6.00;;;1.20;;
64842;SDS011;51310;52.198;5.422;2023-04-03T08:41:53;4.78;;;1.25;;
64842;SDS011;51310;52.198;5.422;2023-04-03T08:44:41;3.17;;;1.02;;
64842;SDS011;51310;52.198;5.422;2023-04-03T08:47:28;2.28;;;1.02;;
64842;SDS011;51310;52.198;5.422;2023-04-03T08:50:04;2.90;;;1.27;;
64842;SDS011;51310;52.198;5.422;2023-04-03T08:52:54;2.88;;;1.10;;
64842;SDS011;51310;52.198;5.422;2023-04-03T08:55:27;2.65;;;0.77;;
64842;SDS011;51310;52.198;5.422;2023-04-03T08:58:05;1.80;;;1.00;;
64842;SDS011;51310;52.198;5.422;2023-04-03T09:03:14;5.22;;;1.40;;
64842;SDS011;51310;52.198;5.422;2023-04-03T09:05:45;5.10;;;0.98;;
64842;SDS011;51310;52.198;5.422;2023-04-03T09:08:34;3.60;;;0.80;;
64842;SDS011;51310;52.198;5.422;2023-04-03T09:11:21;4.78;;;1.00;;
64842;SDS011;51310;52.198;5.422;2023-04-03T09:14:04;3.28;;;0.90;;
64842;SDS011;51310;52.198;5.422;2023-04-03T09:16:49;2.53;;;1.02;;
64842;SDS011;51310;52.198;5.422;2023-04-03T09:22:17;1.42;;;0.52;;
64842;SDS011;51310;52.198;5.422;2023-04-03T09:24:52;1.30;;;0.80;;
64842;SDS011;51310;52.198;5.422;2023-04-03T09:27:27;2.30;;;0.70;;
64842;SDS011;51310;52.198;5.422;2023-04-03T09:29:53;0.97;;;0.40;;
64842;SDS011;51310;52.198;5.422;2023-04-03T09:32:25;1.50;;;0.70;;
64842;SDS011;51310;52.198;5.422;2023-04-03T09:34:56;1.20;;;0.80;;
64842;SDS011;51310;52.198;5.422;2023-04-03T09:37:55;1.52;;;0.60;;
64842;SDS011;51310;52.198;5.422;2023-04-03T09:40:44;1.47;;;0.47;;
64842;SDS011;51310;52.198;5.422;2023-04-03T09:45:56;2.80;;;0.70;;
64842;SDS011;51310;52.198;5.422;2023-04-03T09:48:59;1.10;;;0.60;;
64842;SDS011;51310;52.198;5.422;2023-04-03T09:51:31;2.92;;;0.82;;
64842;SDS011;51310;52.198;5.422;2023-04-03T09:53:57;1.17;;;0.60;;
64842;SDS011;51310;52.198;5.422;2023-04-03T09:56:25;2.53;;;0.70;;
64842;SDS011;51310;52.198;5.422;2023-04-03T10:01:29;1.15;;;0.50;;
64842;SDS011;51310;52.198;5.422;2023-04-03T10:04:06;1.20;;;0.50;;
64842;SDS011;51310;52.198;5.422;2023-04-03T10:06:35;1.35;;;0.70;;
64842;SDS011;51310;52.198;5.422;2023-04-03T10:09:12;1.23;;;0.60;;
64842;SDS011;51310;52.198;5.422;2023-04-03T10:12:05;4.63;;;1.30;;
64842;SDS011;51310;52.198;5.422;2023-04-03T10:14:59;1.60;;;1.10;;
64842;SDS011;51310;52.198;5.422;2023-04-03T10:20:07;1.40;;;0.68;;
64842;SDS011;51310;52.198;5.422;2023-04-03T10:23:17;1.25;;;0.50;;
64842;SDS011;51310;52.198;5.422;2023-04-03T10:34:30;2.05;;;0.70;;
64842;SDS011;51310;52.198;5.422;2023-04-03T10:37:12;2.00;;;0.60;;
64842;SDS011;51310;52.198;5.422;2023-04-03T10:39:57;2.00;;;0.90;;
64842;SDS011;51310;52.198;5.422;2023-04-03T10:45:51;4.03;;;0.50;;
64842;SDS011;51310;52.198;5.422;2023-04-03T10:51:16;3.70;;;1.10;;
64842;SDS011;51310;52.198;5.422;2023-04-03T10:54:05;1.33;;;0.67;;
64842;SDS011;51310;52.198;5.422;2023-04-03T10:56:50;3.47;;;0.60;;
64842;SDS011;51310;52.198;5.422;2023-04-03T10:59:32;2.55;;;0.70;;
64842;SDS011;51310;52.198;5.422;2023-04-03T11:02:04;1.23;;;0.60;;
64842;SDS011;51310;52.198;5.422;2023-04-03T11:05:04;2.15;;;0.85;;
64842;SDS011;51310;52.198;5.422;2023-04-03T11:08:01;2.03;;;0.75;;
64842;SDS011;51310;52.198;5.422;2023-04-03T11:13:03;2.20;;;0.80;;
64842;SDS011;51310;52.198;5.422;2023-04-03T11:15:40;3.20;;;0.65;;
64842;SDS011;51310;52.198;5.422;2023-04-03T11:18:11;2.90;;;0.70;;
64842;SDS011;51310;52.198;5.422;2023-04-03T11:20:50;2.95;;;0.75;;
64842;SDS011;51310;52.198;5.422;2023-04-03T11:23:34;2.00;;;0.98;;
64842;SDS011;51310;52.198;5.422;2023-04-03T11:26:14;2.58;;;0.77;;
64842;SDS011;51310;52.198;5.422;2023-04-03T11:29:02;1.88;;;1.00;;
64842;SDS011;51310;52.198;5.422;2023-04-03T11:31:48;2.38;;;0.90;;
64842;SDS011;51310;52.198;5.422;2023-04-03T11:37:13;2.17;;;0.80;;
64842;SDS011;51310;52.198;5.422;2023-04-03T11:40:02;2.40;;;0.65;;
64842;SDS011;51310;52.198;5.422;2023-04-03T11:42:42;3.03;;;0.63;;
64842;SDS011;51310;52.198;5.422;2023-04-03T11:45:34;3.53;;;0.80;;
64842;SDS011;51310;52.198;5.422;2023-04-03T11:58:46;1.92;;;0.60;;
64842;SDS011;51310;52.198;5.422;2023-04-03T12:01:45;3.80;;;0.80;;
64842;SDS011;51310;52.198;5.422;2023-04-03T12:04:19;2.42;;;1.10;;
64842;SDS011;51310;52.198;5.422;2023-04-03T12:12:24;2.60;;;0.80;;
64842;SDS011;51310;52.198;5.422;2023-04-03T12:15:11;1.35;;;0.60;;
64842;SDS011;51310;52.198;5.422;2023-04-03T12:17:47;4.05;;;1.02;;
64842;SDS011;51310;52.198;5.422;2023-04-03T12:23:28;2.90;;;0.90;;
64842;SDS011;51310;52.198;5.422;2023-04-03T12:26:02;3.10;;;0.87;;
64842;SDS011;51310;52.198;5.422;2023-04-03T12:28:57;1.77;;;0.60;;
64842;SDS011;51310;52.198;5.422;2023-04-03T12:31:32;2.58;;;0.90;;
64842;SDS011;51310;52.198;5.422;2023-04-03T12:43:11;2.30;;;0.80;;
64842;SDS011;51310;52.198;5.422;2023-04-03T12:46:03;2.60;;;0.85;;
64842;SDS011;51310;52.198;5.422;2023-04-03T12:48:33;3.88;;;0.73;;
64842;SDS011;51310;52.198;5.422;2023-04-03T12:51:03;2.10;;;0.50;;
64842;SDS011;51310;52.198;5.422;2023-04-03T12:53:32;4.18;;;0.80;;
64842;SDS011;51310;52.198;5.422;2023-04-03T12:58:52;2.08;;;0.80;;
64842;SDS011;51310;52.198;5.422;2023-04-03T13:01:23;1.80;;;0.60;;
64842;SDS011;51310;52.198;5.422;2023-04-03T13:03:55;5.30;;;1.10;;
64842;SDS011;51310;52.198;5.422;2023-04-03T13:06:27;4.10;;;0.93;;
64842;SDS011;51310;52.198;5.422;2023-04-03T13:09:03;2.25;;;0.90;;
64842;SDS011;51310;52.198;5.422;2023-04-03T13:11:30;3.15;;;0.82;;
64842;SDS011;51310;52.198;5.422;2023-04-03T13:14:04;1.42;;;0.85;;
64842;SDS011;51310;52.198;5.422;2023-04-03T13:16:40;2.10;;;0.70;;
64842;SDS011;51310;52.198;5.422;2023-04-03T13:19:14;4.83;;;1.17;;
64842;SDS011;51310;52.198;5.422;2023-04-03T13:21:42;3.95;;;0.90;;
64842;SDS011;51310;52.198;5.422;2023-04-03T13:24:09;3.50;;;1.08;;
64842;SDS011;51310;52.198;5.422;2023-04-03T13:26:36;2.42;;;0.85;;
64842;SDS011;51310;52.198;5.422;2023-04-03T13:29:04;3.42;;;0.90;;
64842;SDS011;51310;52.198;5.422;2023-04-03T13:31:44;1.90;;;0.82;;
64842;SDS011;51310;52.198;5.422;2023-04-03T13:34:12;2.80;;;1.07;;
64842;SDS011;51310;52.198;5.422;2023-04-03T13:36:45;2.20;;;1.10;;
64842;SDS011;51310;52.198;5.422;2023-04-03T13:39:27;1.30;;;0.80;;
64842;SDS011;51310;52.198;5.422;2023-04-03T13:42:14;2.78;;;1.00;;
64842;SDS011;51310;52.198;5.422;2023-04-03T13:45:11;2.20;;;1.00;;
64842;SDS011;51310;52.198;5.422;2023-04-03T13:47:53;2.77;;;0.97;;
64842;SDS011;51310;52.198;5.422;2023-04-03T13:50:50;3.38;;;1.08;;
64842;SDS011;51310;52.198;5.422;2023-04-03T13:53:30;2.20;;;0.88;;
64842;SDS011;51310;52.198;5.422;2023-04-03T13:58:52;6.47;;;1.00;;
64842;SDS011;51310;52.198;5.422;2023-04-03T14:01:21;2.08;;;1.10;;
64842;SDS011;51310;52.198;5.422;2023-04-03T14:06:26;6.97;;;1.40;;
64842;SDS011;51310;52.198;5.422;2023-04-03T14:08:52;3.35;;;1.00;;
64842;SDS011;51310;52.198;5.422;2023-04-03T14:11:19;2.05;;;0.93;;
64842;SDS011;51310;52.198;5.422;2023-04-03T14:13:52;2.97;;;1.03;;
64842;SDS011;51310;52.198;5.422;2023-04-03T14:16:20;2.45;;;1.00;;
64842;SDS011;51310;52.198;5.422;2023-04-03T14:18:52;2.33;;;0.85;;
64842;SDS011;51310;52.198;5.422;2023-04-03T14:21:19;2.90;;;1.00;;
64842;SDS011;51310;52.198;5.422;2023-04-03T14:23:46;4.75;;;1.60;;
64842;SDS011;51310;52.198;5.422;2023-04-03T14:26:14;2.38;;;1.10;;
64842;SDS011;51310;52.198;5.422;2023-04-03T14:28:46;3.78;;;1.38;;
64842;SDS011;51310;52.198;5.422;2023-04-03T14:31:15;2.88;;;1.23;;
64842;SDS011;51310;52.198;5.422;2023-04-03T14:33:42;2.50;;;1.20;;
64842;SDS011;51310;52.198;5.422;2023-04-03T14:36:11;5.38;;;1.40;;
64842;SDS011;51310;52.198;5.422;2023-04-03T14:38:50;3.33;;;1.00;;
64842;SDS011;51310;52.198;5.422;2023-04-03T14:41:18;4.53;;;1.10;;
64842;SDS011;51310;52.198;5.422;2023-04-03T14:43:47;3.43;;;1.00;;
64842;SDS011;51310;52.198;5.422;2023-04-03T14:46:16;3.77;;;1.67;;
64842;SDS011;51310;52.198;5.422;2023-04-03T14:48:48;2.58;;;1.00;;
64842;SDS011;51310;52.198;5.422;2023-04-03T14:51:15;2.70;;;1.10;;
64842;SDS011;51310;52.198;5.422;2023-04-03T14:53:42;2.80;;;0.98;;
64842;SDS011;51310;52.198;5.422;2023-04-03T14:56:11;3.85;;;1.20;;
64842;SDS011;51310;52.198;5.422;2023-04-03T14:58:54;2.55;;;1.40;;
64842;SDS011;51310;52.198;5.422;2023-04-03T15:01:23;4.53;;;1.00;;
64842;SDS011;51310;52.198;5.422;2023-04-03T15:03:50;1.90;;;1.07;;
64842;SDS011;51310;52.198;5.422;2023-04-03T15:06:16;5.77;;;1.63;;
64842;SDS011;51310;52.198;5.422;2023-04-03T15:08:42;2.28;;;1.10;;
64842;SDS011;51310;52.198;5.422;2023-04-03T15:11:10;3.55;;;1.80;;
64842;SDS011;51310;52.198;5.422;2023-04-03T15:13:36;3.23;;;1.10;;
64842;SDS011;51310;52.198;5.422;2023-04-03T15:16:04;4.70;;;1.60;;
64842;SDS011;51310;52.198;5.422;2023-04-03T15:18:37;6.20;;;1.70;;
64842;SDS011;51310;52.198;5.422;2023-04-03T15:21:04;3.58;;;1.20;;
64842;SDS011;51310;52.198;5.422;2023-04-03T15:23:30;4.95;;;1.48;;
64842;SDS011;51310;52.198;5.422;2023-04-03T15:25:56;3.93;;;1.60;;
64842;SDS011;51310;52.198;5.422;2023-04-03T15:28:37;3.45;;;1.17;;
64842;SDS011;51310;52.198;5.422;2023-04-03T15:31:05;3.38;;;1.55;;
64842;SDS011;51310;52.198;5.422;2023-04-03T15:33:32;4.18;;;1.50;;
64842;SDS011;51310;52.198;5.422;2023-04-03T15:35:59;6.35;;;1.35;;
64842;SDS011;51310;52.198;5.422;2023-04-03T15:38:25;3.83;;;1.20;;
64842;SDS011;51310;52.198;5.422;2023-04-03T15:40:51;3.83;;;1.35;;
64842;SDS011;51310;52.198;5.422;2023-04-03T15:43:18;2.95;;;1.10;;
64842;SDS011;51310;52.198;5.422;2023-04-03T15:45:44;4.53;;;1.45;;
64842;SDS011;51310;52.198;5.422;2023-04-03T15:48:10;3.60;;;1.80;;
64842;SDS011;51310;52.198;5.422;2023-04-03T15:50:37;3.28;;;1.40;;
64842;SDS011;51310;52.198;5.422;2023-04-03T15:53:03;4.15;;;1.33;;
64842;SDS011;51310;52.198;5.422;2023-04-03T15:55:30;3.25;;;1.63;;
64842;SDS011;51310;52.198;5.422;2023-04-03T15:57:59;4.75;;;1.35;;
64842;SDS011;51310;52.198;5.422;2023-04-03T16:00:26;4.40;;;1.48;;
64842;SDS011;51310;52.198;5.422;2023-04-03T16:02:54;3.13;;;1.20;;
64842;SDS011;51310;52.198;5.422;2023-04-03T16:05:24;3.60;;;1.80;;
64842;SDS011;51310;52.198;5.422;2023-04-03T16:07:50;4.20;;;1.65;;
64842;SDS011;51310;52.198;5.422;2023-04-03T16:10:17;5.43;;;1.63;;
64842;SDS011;51310;52.198;5.422;2023-04-03T16:12:43;4.55;;;1.35;;
64842;SDS011;51310;52.198;5.422;2023-04-03T16:15:10;4.20;;;1.38;;
64842;SDS011;51310;52.198;5.422;2023-04-03T16:17:36;2.50;;;1.25;;
64842;SDS011;51310;52.198;5.422;2023-04-03T16:20:05;3.93;;;1.30;;
64842;SDS011;51310;52.198;5.422;2023-04-03T16:22:34;5.07;;;1.53;;
64842;SDS011;51310;52.198;5.422;2023-04-03T16:25:00;3.28;;;1.52;;
64842;SDS011;51310;52.198;5.422;2023-04-03T16:27:26;5.80;;;1.30;;